sensor_id;sensor_type;location;lat;lon;timestamp;pressure;altitude;pressure_sealevel;temperature;humidity
14343;BME280;7255;53.596;9.960;2023-02-10T00:00:46;102640.94;;;3.60;nan
14343;BME280;7255;53.596;9.960;2023-02-10T00:03:12;102619.41;;;3.63;nan
14343;BME280;7255;53.596;9.960;2023-02-10T00:05:38;102639.00;;;3.62;nan
14343;BME280;7255;53.596;9.960;2023-02-10T00:08:05;102627.53;;;3.61;nan
14343;BME280;7255;53.596;9.960;2023-02-10T00:10:32;102628.34;;;3.62;nan
14343;BME280;7255;53.596;9.960;2023-02-10T00:12:59;102618.84;;;3.59;nan
14343;BME280;7255;53.596;9.960;2023-02-10T00:15:25;102610.16;;;3.57;nan
14343;BME280;7255;53.596;9.960;2023-02-10T00:17:51;102624.75;;;3.63;nan
14343;BME280;7255;53.596;9.960;2023-02-10T00:20:18;102625.56;;;3.63;nan
14343;BME280;7255;53.596;9.960;2023-02-10T00:22:44;102632.00;;;3.61;nan
14343;BME280;7255;53.596;9.960;2023-02-10T00:25:11;102563.72;;;3.61;nan
14343;BME280;7255;53.596;9.960;2023-02-10T00:27:39;102593.13;;;3.70;nan
14343;BME280;7255;53.596;9.960;2023-02-10T00:30:05;102615.25;;;3.70;nan
14343;BME280;7255;53.596;9.960;2023-02-10T00:32:32;102592.84;;;3.63;nan
14343;BME280;7255;53.596;9.960;2023-02-10T00:34:58;102595.34;;;3.64;nan
14343;BME280;7255;53.596;9.960;2023-02-10T00:37:24;102609.03;;;3.60;nan
14343;BME280;7255;53.596;9.960;2023-02-10T00:39:51;102607.34;;;3.59;nan
14343;BME280;7255;53.596;9.960;2023-02-10T00:42:17;102589.69;;;3.48;nan
14343;BME280;7255;53.596;9.960;2023-02-10T00:44:45;102615.16;;;3.51;nan
14343;BME280;7255;53.596;9.960;2023-02-10T00:47:11;102616.28;;;3.48;nan
14343;BME280;7255;53.596;9.960;2023-02-10T00:49:37;102623.03;;;3.62;nan
14343;BME280;7255;53.596;9.960;2023-02-10T00:52:04;102603.97;;;3.57;nan
14343;BME280;7255;53.596;9.960;2023-02-10T00:54:30;102603.47;;;3.63;nan
14343;BME280;7255;53.596;9.960;2023-02-10T00:56:57;102608.50;;;3.66;nan
14343;BME280;7255;53.596;9.960;2023-02-10T00:59:23;102555.31;;;3.66;nan
14343;BME280;7255;53.596;9.960;2023-02-10T01:01:51;102611.28;;;3.64;nan
14343;BME280;7255;53.596;9.960;2023-02-10T01:04:17;102557.03;;;3.67;nan
14343;BME280;7255;53.596;9.960;2023-02-10T01:06:44;102605.47;;;3.71;nan
14343;BME280;7255;53.596;9.960;2023-02-10T01:09:10;102614.97;;;3.73;nan
14343;BME280;7255;53.596;9.960;2023-02-10T01:11:37;102610.81;;;3.80;nan
14343;BME280;7255;53.596;9.960;2023-02-10T01:14:03;102611.09;;;3.77;nan
14343;BME280;7255;53.596;9.960;2023-02-10T01:16:30;102621.72;;;3.77;nan
14343;BME280;7255;53.596;9.960;2023-02-10T01:18:58;102640.75;;;3.82;nan
14343;BME280;7255;53.596;9.960;2023-02-10T01:21:24;102623.41;;;3.78;nan
14343;BME280;7255;53.596;9.960;2023-02-10T01:23:51;102623.41;;;3.78;nan
14343;BME280;7255;53.596;9.960;2023-02-10T01:26:17;102611.09;;;3.77;nan
14343;BME280;7255;53.596;9.960;2023-02-10T01:28:44;102625.34;;;3.76;nan
14343;BME280;7255;53.596;9.960;2023-02-10T01:31:12;102634.28;;;3.75;nan
14343;BME280;7255;53.596;9.960;2023-02-10T01:33:40;102623.66;;;3.75;nan
14343;BME280;7255;53.596;9.960;2023-02-10T01:36:09;102657.84;;;3.80;nan
14343;BME280;7255;53.596;9.960;2023-02-10T01:38:36;102585.03;;;3.81;nan
14343;BME280;7255;53.596;9.960;2023-02-10T01:41:03;102611.97;;;3.88;nan
14343;BME280;7255;53.596;9.960;2023-02-10T01:43:30;102665.72;;;3.91;nan
14343;BME280;7255;53.596;9.960;2023-02-10T01:45:56;102654.81;;;3.94;nan
14343;BME280;7255;53.596;9.960;2023-02-10T01:48:24;102643.87;;;3.88;nan
14343;BME280;7255;53.596;9.960;2023-02-10T01:50:52;102647.81;;;3.93;nan
14343;BME280;7255;53.596;9.960;2023-02-10T01:53:21;102628.81;;;3.98;nan
14343;BME280;7255;53.596;9.960;2023-02-10T01:55:51;102660.16;;;3.94;nan
14343;BME280;7255;53.596;9.960;2023-02-10T01:58:21;102599.09;;;3.93;nan
14343;BME280;7255;53.596;9.960;2023-02-10T02:00:49;102623.72;;;3.85;nan
14343;BME280;7255;53.596;9.960;2023-02-10T02:03:15;102638.81;;;3.84;nan
14343;BME280;7255;53.596;9.960;2023-02-10T02:05:43;102664.34;;;3.97;nan
14343;BME280;7255;53.596;9.960;2023-02-10T02:08:11;102599.06;;;3.83;nan
14343;BME280;7255;53.596;9.960;2023-02-10T02:10:57;102584.53;;;3.87;nan
14343;BME280;7255;53.596;9.960;2023-02-10T02:13:38;102604.91;;;3.77;nan
14343;BME280;7255;53.596;9.960;2023-02-10T02:16:15;102606.88;;;3.75;nan
14343;BME280;7255;53.596;9.960;2023-02-10T02:18:53;102605.78;;;3.77;nan
14343;BME280;7255;53.596;9.960;2023-02-10T02:24:46;102632.38;;;3.77;nan
14343;BME280;7255;53.596;9.960;2023-02-10T02:27:37;102628.12;;;3.75;nan
14343;BME280;7255;53.596;9.960;2023-02-10T02:30:28;102563.75;;;3.71;nan
14343;BME280;7255;53.596;9.960;2023-02-10T02:33:04;102631.78;;;3.74;nan
14343;BME280;7255;53.596;9.960;2023-02-10T02:35:37;102625.31;;;3.66;nan
14343;BME280;7255;53.596;9.960;2023-02-10T02:38:06;102641.56;;;3.73;nan
14343;BME280;7255;53.596;9.960;2023-02-10T02:40:32;102649.94;;;3.69;nan
14343;BME280;7255;53.596;9.960;2023-02-10T02:42:58;102656.69;;;3.73;nan
14343;BME280;7255;53.596;9.960;2023-02-10T02:45:27;102669.00;;;3.74;nan
14343;BME280;7255;53.596;9.960;2023-02-10T02:48:15;102695.91;;;3.80;nan
14343;BME280;7255;53.596;9.960;2023-02-10T02:50:52;102668.47;;;3.80;nan
14343;BME280;7255;53.596;9.960;2023-02-10T02:53:28;102592.87;;;3.73;nan
14343;BME280;7255;53.596;9.960;2023-02-10T02:56:03;102703.72;;;3.72;nan
14343;BME280;7255;53.596;9.960;2023-02-10T02:58:40;102777.00;;;3.65;nan
14343;BME280;7255;53.596;9.960;2023-02-10T03:01:12;102759.88;;;3.58;nan
14343;BME280;7255;53.596;9.960;2023-02-10T03:03:41;102753.38;;;3.51;nan
14343;BME280;7255;53.596;9.960;2023-02-10T03:06:08;102668.84;;;3.44;nan
14343;BME280;7255;53.596;9.960;2023-02-10T03:08:37;102666.63;;;3.50;nan
14343;BME280;7255;53.596;9.960;2023-02-10T03:11:05;102651.78;;;3.47;nan
14343;BME280;7255;53.596;9.960;2023-02-10T03:13:31;102604.19;;;3.44;nan
14343;BME280;7255;53.596;9.960;2023-02-10T03:15:58;102584.31;;;3.38;nan
14343;BME280;7255;53.596;9.960;2023-02-10T03:18:24;102587.38;;;3.34;nan
14343;BME280;7255;53.596;9.960;2023-02-10T03:20:52;102511.53;;;3.30;nan
14343;BME280;7255;53.596;9.960;2023-02-10T03:23:18;102611.91;;;3.26;nan
14343;BME280;7255;53.596;9.960;2023-02-10T03:25:45;102576.09;;;3.20;nan
14343;BME280;7255;53.596;9.960;2023-02-10T03:28:11;102571.63;;;3.21;nan
14343;BME280;7255;53.596;9.960;2023-02-10T03:30:38;102605.72;;;3.16;nan
14343;BME280;7255;53.596;9.960;2023-02-10T03:33:08;102590.59;;;3.16;nan
14343;BME280;7255;53.596;9.960;2023-02-10T03:35:35;102584.47;;;3.16;nan
14343;BME280;7255;53.596;9.960;2023-02-10T03:38:03;102596.47;;;3.10;nan
14343;BME280;7255;53.596;9.960;2023-02-10T03:40:29;102683.72;;;3.15;nan
14343;BME280;7255;53.596;9.960;2023-02-10T03:42:55;102615.22;;;3.18;nan
14343;BME280;7255;53.596;9.960;2023-02-10T03:45:21;102606.81;;;3.13;nan
14343;BME280;7255;53.596;9.960;2023-02-10T03:47:48;102601.50;;;3.13;nan
14343;BME280;7255;53.596;9.960;2023-02-10T03:50:14;102678.94;;;3.08;nan
14343;BME280;7255;53.596;9.960;2023-02-10T03:52:40;102612.41;;;3.10;nan
14343;BME280;7255;53.596;9.960;2023-02-10T03:55:08;102601.19;;;3.06;nan
14343;BME280;7255;53.596;9.960;2023-02-10T03:57:39;102598.91;;;3.02;nan
14343;BME280;7255;53.596;9.960;2023-02-10T04:00:07;102660.37;;;2.97;nan
14343;BME280;7255;53.596;9.960;2023-02-10T04:02:33;102602.44;;;2.91;nan
14343;BME280;7255;53.596;9.960;2023-02-10T04:04:59;102599.94;;;2.89;nan
14343;BME280;7255;53.596;9.960;2023-02-10T04:07:26;102599.09;;;2.89;nan
14343;BME280;7255;53.596;9.960;2023-02-10T04:09:52;102602.38;;;2.81;nan
14343;BME280;7255;53.596;9.960;2023-02-10T04:12:19;102611.06;;;2.83;nan
14343;BME280;7255;53.596;9.960;2023-02-10T04:14:46;102599.84;;;2.80;nan
14343;BME280;7255;53.596;9.960;2023-02-10T04:17:12;102652.97;;;2.80;nan
14343;BME280;7255;53.596;9.960;2023-02-10T04:19:38;102612.41;;;2.78;nan
14343;BME280;7255;53.596;9.960;2023-02-10T04:22:05;102634.00;;;2.84;nan
14343;BME280;7255;53.596;9.960;2023-02-10T04:24:31;102667.28;;;2.88;nan
14343;BME280;7255;53.596;9.960;2023-02-10T04:26:58;102619.25;;;2.92;nan
14343;BME280;7255;53.596;9.960;2023-02-10T04:29:25;102627.09;;;2.93;nan
14343;BME280;7255;53.596;9.960;2023-02-10T04:31:52;102686.94;;;2.97;nan
14343;BME280;7255;53.596;9.960;2023-02-10T04:34:18;102685.25;;;2.96;nan
14343;BME280;7255;53.596;9.960;2023-02-10T04:36:44;102670.66;;;2.91;nan
14343;BME280;7255;53.596;9.960;2023-02-10T04:39:11;102675.13;;;2.90;nan
14343;BME280;7255;53.596;9.960;2023-02-10T04:41:37;102665.88;;;2.84;nan
14343;BME280;7255;53.596;9.960;2023-02-10T04:44:04;102633.13;;;2.84;nan
14343;BME280;7255;53.596;9.960;2023-02-10T04:46:32;102675.13;;;2.90;nan
14343;BME280;7255;53.596;9.960;2023-02-10T04:48:58;102627.00;;;2.83;nan
14343;BME280;7255;53.596;9.960;2023-02-10T04:51:25;102631.22;;;2.86;nan
14343;BME280;7255;53.596;9.960;2023-02-10T04:53:51;102636.78;;;2.83;nan
14343;BME280;7255;53.596;9.960;2023-02-10T04:56:17;102662.97;;;2.76;nan
14343;BME280;7255;53.596;9.960;2023-02-10T04:58:43;102657.09;;;2.73;nan
14343;BME280;7255;53.596;9.960;2023-02-10T05:01:10;102632.22;;;2.74;nan
14343;BME280;7255;53.596;9.960;2023-02-10T05:03:38;102633.91;;;2.75;nan
14343;BME280;7255;53.596;9.960;2023-02-10T05:06:06;102632.00;;;2.77;nan
14343;BME280;7255;53.596;9.960;2023-02-10T05:08:33;102662.16;;;2.76;nan
14343;BME280;7255;53.596;9.960;2023-02-10T05:11:01;102671.66;;;2.78;nan
14343;BME280;7255;53.596;9.960;2023-02-10T05:13:27;102654.91;;;2.78;nan
14343;BME280;7255;53.596;9.960;2023-02-10T05:15:54;102681.81;;;2.84;nan
14343;BME280;7255;53.596;9.960;2023-02-10T05:18:20;102656.31;;;2.82;nan
14343;BME280;7255;53.596;9.960;2023-02-10T05:20:49;102649.06;;;2.84;nan
14343;BME280;7255;53.596;9.960;2023-02-10T05:23:15;102647.47;;;2.93;nan
14343;BME280;7255;53.596;9.960;2023-02-10T05:25:41;102664.50;;;2.90;nan
14343;BME280;7255;53.596;9.960;2023-02-10T05:28:07;102672.94;;;2.95;nan
14343;BME280;7255;53.596;9.960;2023-02-10T05:30:34;102662.06;;;2.98;nan
14343;BME280;7255;53.596;9.960;2023-02-10T05:33:00;102674.37;;;2.99;nan
14343;BME280;7255;53.596;9.960;2023-02-10T05:35:26;102702.59;;;3.00;nan
14343;BME280;7255;53.596;9.960;2023-02-10T05:37:54;102713.22;;;3.00;nan
14343;BME280;7255;53.596;9.960;2023-02-10T05:40:20;102687.72;;;2.88;nan
14343;BME280;7255;53.596;9.960;2023-02-10T05:42:47;102580.38;;;2.91;nan
14343;BME280;7255;53.596;9.960;2023-02-10T05:45:13;102540.66;;;2.89;nan
14343;BME280;7255;53.596;9.960;2023-02-10T05:47:39;102560.88;;;3.01;nan
14343;BME280;7255;53.596;9.960;2023-02-10T05:50:06;102587.25;;;3.14;nan
14343;BME280;7255;53.596;9.960;2023-02-10T05:52:34;102559.50;;;3.07;nan
14343;BME280;7255;53.596;9.960;2023-02-10T05:55:01;102592.81;;;3.11;nan
14343;BME280;7255;53.596;9.960;2023-02-10T05:57:27;102589.78;;;3.16;nan
14343;BME280;7255;53.596;9.960;2023-02-10T05:59:54;102586.41;;;3.14;nan
14343;BME280;7255;53.596;9.960;2023-02-10T06:02:20;102594.25;;;3.15;nan
14343;BME280;7255;53.596;9.960;2023-02-10T06:04:46;102606.88;;;3.23;nan
14343;BME280;7255;53.596;9.960;2023-02-10T06:07:13;102580.81;;;3.17;nan
14343;BME280;7255;53.596;9.960;2023-02-10T06:09:39;102599.63;;;3.25;nan
14343;BME280;7255;53.596;9.960;2023-02-10T06:12:07;102587.03;;;3.27;nan
14343;BME280;7255;53.596;9.960;2023-02-10T06:14:34;102519.50;;;3.30;nan
14343;BME280;7255;53.596;9.960;2023-02-10T06:17:03;102593.53;;;3.34;nan
14343;BME280;7255;53.596;9.960;2023-02-10T06:19:33;102586.22;;;3.26;nan
14343;BME280;7255;53.596;9.960;2023-02-10T06:22:00;102588.47;;;3.31;nan
14343;BME280;7255;53.596;9.960;2023-02-10T06:24:26;102606.41;;;3.39;nan
14343;BME280;7255;53.596;9.960;2023-02-10T06:26:52;102605.78;;;3.25;nan
14343;BME280;7255;53.596;9.960;2023-02-10T06:29:20;102604.16;;;3.34;nan
14343;BME280;7255;53.596;9.960;2023-02-10T06:31:46;102580.41;;;3.42;nan
14343;BME280;7255;53.596;9.960;2023-02-10T06:34:13;102532.84;;;3.39;nan
14343;BME280;7255;53.596;9.960;2023-02-10T06:36:39;102530.56;;;3.35;nan
14343;BME280;7255;53.596;9.960;2023-02-10T06:39:06;102695.53;;;3.22;nan
14343;BME280;7255;53.596;9.960;2023-02-10T06:41:32;102595.91;;;3.16;nan
14343;BME280;7255;53.596;9.960;2023-02-10T06:43:59;102598.47;;;3.18;nan
14343;BME280;7255;53.596;9.960;2023-02-10T06:46:26;102673.09;;;3.15;nan
14343;BME280;7255;53.596;9.960;2023-02-10T06:48:53;102580.03;;;3.26;nan
14343;BME280;7255;53.596;9.960;2023-02-10T06:51:19;102509.28;;;3.25;nan
14343;BME280;7255;53.596;9.960;2023-02-10T06:53:46;102514.59;;;3.25;nan
14343;BME280;7255;53.596;9.960;2023-02-10T06:56:12;102606.09;;;3.32;nan
14343;BME280;7255;53.596;9.960;2023-02-10T06:58:38;102599.94;;;3.32;nan
14343;BME280;7255;53.596;9.960;2023-02-10T07:01:07;102587.56;;;3.21;nan
14343;BME280;7255;53.596;9.960;2023-02-10T07:03:34;102600.19;;;3.28;nan
14343;BME280;7255;53.596;9.960;2023-02-10T07:06:01;102529.50;;;3.37;nan
14343;BME280;7255;53.596;9.960;2023-02-10T07:10:53;102521.31;;;3.29;nan
14343;BME280;7255;53.596;9.960;2023-02-10T07:13:20;102648.56;;;3.22;nan
14343;BME280;7255;53.596;9.960;2023-02-10T07:15:46;102645.50;;;3.27;nan
14343;BME280;7255;53.596;9.960;2023-02-10T07:18:12;102632.91;;;3.29;nan
14343;BME280;7255;53.596;9.960;2023-02-10T07:20:40;102651.06;;;3.24;nan
14343;BME280;7255;53.596;9.960;2023-02-10T07:23:06;102663.72;;;3.32;nan
14343;BME280;7255;53.596;9.960;2023-02-10T07:25:33;102673.81;;;3.38;nan
14343;BME280;7255;53.596;9.960;2023-02-10T07:27:59;102679.97;;;3.38;nan
14343;BME280;7255;53.596;9.960;2023-02-10T07:30:26;102681.09;;;3.36;nan
14343;BME280;7255;53.596;9.960;2023-02-10T07:32:52;102671.34;;;3.46;nan
14343;BME280;7255;53.596;9.960;2023-02-10T07:35:19;102666.31;;;3.43;nan
14343;BME280;7255;53.596;9.960;2023-02-10T07:37:47;102692.38;;;3.49;nan
14343;BME280;7255;53.596;9.960;2023-02-10T07:40:13;102680.56;;;3.42;nan
14343;BME280;7255;53.596;9.960;2023-02-10T07:42:39;102686.72;;;3.42;nan
14343;BME280;7255;53.596;9.960;2023-02-10T07:45:06;102684.78;;;3.44;nan
14343;BME280;7255;53.596;9.960;2023-02-10T07:47:33;102689.00;;;3.47;nan
14343;BME280;7255;53.596;9.960;2023-02-10T07:49:59;102695.47;;;3.54;nan
14343;BME280;7255;53.596;9.960;2023-02-10T07:52:26;102681.47;;;3.52;nan
14343;BME280;7255;53.596;9.960;2023-02-10T07:54:54;102770.25;;;3.61;nan
14343;BME280;7255;53.596;9.960;2023-02-10T07:57:20;102812.28;;;3.67;nan
14343;BME280;7255;53.596;9.960;2023-02-10T07:59:47;102713.56;;;3.81;nan
14343;BME280;7255;53.596;9.960;2023-02-10T08:02:13;102754.31;;;3.61;nan
14343;BME280;7255;53.596;9.960;2023-02-10T08:04:39;102651.31;;;3.63;nan
14343;BME280;7255;53.596;9.960;2023-02-10T08:07:06;102633.19;;;3.78;nan
14343;BME280;7255;53.596;9.960;2023-02-10T08:09:32;102629.87;;;3.85;nan
14343;BME280;7255;53.596;9.960;2023-02-10T08:12:00;102588.19;;;3.96;nan
14343;BME280;7255;53.596;9.960;2023-02-10T08:14:27;102596.59;;;4.01;nan
14343;BME280;7255;53.596;9.960;2023-02-10T08:16:53;102641.16;;;4.09;nan
14343;BME280;7255;53.596;9.960;2023-02-10T08:19:20;102610.63;;;4.13;nan
14343;BME280;7255;53.596;9.960;2023-02-10T08:21:46;102642.84;;;4.19;nan
14343;BME280;7255;53.596;9.960;2023-02-10T08:24:13;102639.81;;;4.34;nan
14343;BME280;7255;53.596;9.960;2023-02-10T08:26:39;102653.28;;;4.42;nan
14343;BME280;7255;53.596;9.960;2023-02-10T08:29:08;102643.19;;;4.36;nan
14343;BME280;7255;53.596;9.960;2023-02-10T08:31:35;102658.03;;;4.29;nan
14343;BME280;7255;53.596;9.960;2023-02-10T08:34:01;102623.00;;;4.33;nan
14343;BME280;7255;53.596;9.960;2023-02-10T08:36:28;102650.78;;;4.50;nan
14343;BME280;7255;53.596;9.960;2023-02-10T08:38:56;102661.16;;;4.53;nan
14343;BME280;7255;53.596;9.960;2023-02-10T08:41:22;102652.78;;;4.58;nan
14343;BME280;7255;53.596;9.960;2023-02-10T08:43:49;102648.81;;;4.52;nan
14343;BME280;7255;53.596;9.960;2023-02-10T08:46:16;102669.28;;;4.61;nan
14343;BME280;7255;53.596;9.960;2023-02-10T08:48:42;102661.72;;;4.57;nan
14343;BME280;7255;53.596;9.960;2023-02-10T08:51:10;102678.84;;;4.74;nan
14343;BME280;7255;53.596;9.960;2023-02-10T08:53:37;102667.34;;;4.63;nan
14343;BME280;7255;53.596;9.960;2023-02-10T08:56:05;102679.09;;;4.61;nan
14343;BME280;7255;53.596;9.960;2023-02-10T08:58:32;102672.69;;;4.63;nan
14343;BME280;7255;53.596;9.960;2023-02-10T09:00:58;102676.56;;;4.59;nan
14343;BME280;7255;53.596;9.960;2023-02-10T09:03:26;102685.88;;;4.75;nan
14343;BME280;7255;53.596;9.960;2023-02-10T09:05:53;102694.00;;;4.83;nan
14343;BME280;7255;53.596;9.960;2023-02-10T09:08:20;102712.53;;;5.04;nan
14343;BME280;7255;53.596;9.960;2023-02-10T09:10:47;102710.28;;;5.19;nan
14343;BME280;7255;53.596;9.960;2023-02-10T09:13:14;102718.41;;;5.27;nan
14343;BME280;7255;53.596;9.960;2023-02-10T09:15:41;102708.03;;;5.05;nan
14343;BME280;7255;53.596;9.960;2023-02-10T09:18:09;102715.91;;;4.96;nan
14343;BME280;7255;53.596;9.960;2023-02-10T09:20:36;102711.66;;;4.94;nan
14343;BME280;7255;53.596;9.960;2023-02-10T09:23:03;102707.75;;;4.88;nan
14343;BME280;7255;53.596;9.960;2023-02-10T09:25:29;102711.66;;;4.84;nan
14343;BME280;7255;53.596;9.960;2023-02-10T09:27:56;102708.56;;;4.79;nan
14343;BME280;7255;53.596;9.960;2023-02-10T09:30:23;102708.88;;;4.86;nan
14343;BME280;7255;53.596;9.960;2023-02-10T09:32:50;102697.09;;;4.78;nan
14343;BME280;7255;53.596;9.960;2023-02-10T09:35:16;102699.88;;;4.77;nan
14343;BME280;7255;53.596;9.960;2023-02-10T09:37:45;102704.66;;;4.83;nan
14343;BME280;7255;53.596;9.960;2023-02-10T09:40:16;102711.94;;;4.91;nan
14343;BME280;7255;53.596;9.960;2023-02-10T09:42:54;102721.75;;;4.90;nan
14343;BME280;7255;53.596;9.960;2023-02-10T09:45:31;102719.78;;;4.92;nan
14343;BME280;7255;53.596;9.960;2023-02-10T09:48:01;102713.94;;;4.98;nan
14343;BME280;7255;53.596;9.960;2023-02-10T09:50:37;102719.81;;;5.02;nan
14343;BME280;7255;53.596;9.960;2023-02-10T09:53:12;102704.09;;;4.89;nan
14343;BME280;7255;53.596;9.960;2023-02-10T09:55:41;102711.37;;;4.87;nan
14343;BME280;7255;53.596;9.960;2023-02-10T09:58:15;102717.56;;;4.97;nan
14343;BME280;7255;53.596;9.960;2023-02-10T10:00:44;102713.63;;;5.01;nan
14343;BME280;7255;53.596;9.960;2023-02-10T10:03:14;102717.00;;;4.94;nan
14343;BME280;7255;53.596;9.960;2023-02-10T10:05:51;102737.47;;;5.13;nan
14343;BME280;7255;53.596;9.960;2023-02-10T10:08:25;102727.97;;;5.30;nan
14343;BME280;7255;53.596;9.960;2023-02-10T10:10:56;102736.09;;;5.38;nan
14343;BME280;7255;53.596;9.960;2023-02-10T10:13:28;102747.03;;;5.64;nan
14343;BME280;7255;53.596;9.960;2023-02-10T10:16:07;102790.53;;;5.65;nan
14343;BME280;7255;53.596;9.960;2023-02-10T10:18:39;102761.56;;;5.89;nan
14343;BME280;7255;53.596;9.960;2023-02-10T10:21:15;102766.66;;;5.73;nan
14343;BME280;7255;53.596;9.960;2023-02-10T10:23:58;102764.12;;;5.71;nan
14343;BME280;7255;53.596;9.960;2023-02-10T10:26:40;102804.28;;;5.70;nan
14343;BME280;7255;53.596;9.960;2023-02-10T10:29:20;102758.50;;;5.55;nan
14343;BME280;7255;53.596;9.960;2023-02-10T10:31:50;102756.84;;;5.73;nan
14343;BME280;7255;53.596;9.960;2023-02-10T10:34:22;102804.56;;;5.76;nan
14343;BME280;7255;53.596;9.960;2023-02-10T10:36:52;102772.25;;;5.79;nan
14343;BME280;7255;53.596;9.960;2023-02-10T10:39:25;102752.84;;;5.87;nan
14343;BME280;7255;53.596;9.960;2023-02-10T10:41:55;102751.78;;;5.70;nan
14343;BME280;7255;53.596;9.960;2023-02-10T10:44:23;102765.78;;;5.92;nan
14343;BME280;7255;53.596;9.960;2023-02-10T10:47:02;102767.44;;;5.93;nan
14343;BME280;7255;53.596;9.960;2023-02-10T10:49:33;102749.25;;;5.69;nan
14343;BME280;7255;53.596;9.960;2023-02-10T10:52:00;102754.31;;;5.33;nan
14343;BME280;7255;53.596;9.960;2023-02-10T10:54:28;102743.94;;;5.39;nan
14343;BME280;7255;53.596;9.960;2023-02-10T10:56:58;102735.81;;;5.61;nan
14343;BME280;7255;53.596;9.960;2023-02-10T10:59:31;102759.06;;;5.97;nan
14343;BME280;7255;53.596;9.960;2023-02-10T11:02:10;102806.50;;;5.84;nan
14343;BME280;7255;53.596;9.960;2023-02-10T11:04:37;102743.88;;;5.78;nan
14343;BME280;7255;53.596;9.960;2023-02-10T11:07:09;102803.69;;;5.86;nan
14343;BME280;7255;53.596;9.960;2023-02-10T11:09:39;102772.19;;;6.19;nan
14343;BME280;7255;53.596;9.960;2023-02-10T11:12:16;102780.78;;;6.50;nan
14343;BME280;7255;53.596;9.960;2023-02-10T11:14:47;102780.75;;;6.60;nan
14343;BME280;7255;53.596;9.960;2023-02-10T11:17:22;102783.78;;;6.65;nan
14343;BME280;7255;53.596;9.960;2023-02-10T11:19:56;102773.91;;;6.75;nan
14343;BME280;7255;53.596;9.960;2023-02-10T11:22:23;102770.00;;;6.69;nan
14343;BME280;7255;53.596;9.960;2023-02-10T11:24:52;102769.94;;;6.79;nan
14343;BME280;7255;53.596;9.960;2023-02-10T11:27:19;102713.44;;;6.74;nan
14343;BME280;7255;53.596;9.960;2023-02-10T11:29:48;102763.31;;;6.55;nan
14343;BME280;7255;53.596;9.960;2023-02-10T11:32:18;102774.75;;;6.75;nan
14343;BME280;7255;53.596;9.960;2023-02-10T11:34:46;102785.13;;;6.79;nan
14343;BME280;7255;53.596;9.960;2023-02-10T11:37:21;102771.94;;;6.77;nan
14343;BME280;7255;53.596;9.960;2023-02-10T11:39:48;102738.28;;;7.02;nan
14343;BME280;7255;53.596;9.960;2023-02-10T11:42:19;102780.97;;;7.12;nan
14343;BME280;7255;53.596;9.960;2023-02-10T11:44:53;102762.63;;;6.81;nan
14343;BME280;7255;53.596;9.960;2023-02-10T11:47:19;102742.63;;;6.85;nan
14343;BME280;7255;53.596;9.960;2023-02-10T11:49:47;102709.78;;;6.75;nan
14343;BME280;7255;53.596;9.960;2023-02-10T11:52:15;102739.03;;;6.77;nan
14343;BME280;7255;53.596;9.960;2023-02-10T11:54:44;102745.19;;;6.77;nan
14343;BME280;7255;53.596;9.960;2023-02-10T11:57:30;102740.69;;;6.78;nan
14343;BME280;7255;53.596;9.960;2023-02-10T12:00:21;102733.56;;;6.96;nan
14343;BME280;7255;53.596;9.960;2023-02-10T12:03:24;102747.38;;;6.91;nan
14343;BME280;7255;53.596;9.960;2023-02-10T12:05:58;102741.03;;;7.10;nan
14343;BME280;7255;53.596;9.960;2023-02-10T12:08:38;102752.75;;;7.27;nan
14343;BME280;7255;53.596;9.960;2023-02-10T12:11:10;102738.69;;;7.25;nan
14343;BME280;7255;53.596;9.960;2023-02-10T12:13:48;102745.06;;;7.32;nan
14343;BME280;7255;53.596;9.960;2023-02-10T12:16:21;102754.00;;;7.41;nan
14343;BME280;7255;53.596;9.960;2023-02-10T12:18:58;102764.12;;;7.47;nan
14343;BME280;7255;53.596;9.960;2023-02-10T12:24:35;102743.97;;;7.61;nan
14343;BME280;7255;53.596;9.960;2023-02-10T12:27:09;102771.50;;;7.71;nan
14343;BME280;7255;53.596;9.960;2023-02-10T12:29:47;102751.84;;;7.63;nan
14343;BME280;7255;53.596;9.960;2023-02-10T12:32:25;102763.72;;;7.60;nan
14343;BME280;7255;53.596;9.960;2023-02-10T12:35:06;102756.78;;;7.76;nan
14343;BME280;7255;53.596;9.960;2023-02-10T12:37:43;102797.62;;;7.78;nan
14343;BME280;7255;53.596;9.960;2023-02-10T12:40:27;102795.31;;;7.83;nan
14343;BME280;7255;53.596;9.960;2023-02-10T12:43:05;102773.81;;;7.93;nan
14343;BME280;7255;53.596;9.960;2023-02-10T12:45:44;102754.50;;;7.81;nan
14343;BME280;7255;53.596;9.960;2023-02-10T12:48:23;102764.56;;;7.87;nan
14343;BME280;7255;53.596;9.960;2023-02-10T12:51:08;102783.66;;;7.66;nan
14343;BME280;7255;53.596;9.960;2023-02-10T12:53:41;102712.69;;;7.36;nan
14343;BME280;7255;53.596;9.960;2023-02-10T12:56:10;102737.44;;;7.38;nan
14343;BME280;7255;53.596;9.960;2023-02-10T12:58:41;102739.44;;;7.36;nan
14343;BME280;7255;53.596;9.960;2023-02-10T13:01:13;102731.87;;;7.31;nan
14343;BME280;7255;53.596;9.960;2023-02-10T13:03:43;102698.41;;;7.27;nan
14343;BME280;7255;53.596;9.960;2023-02-10T13:06:25;102705.66;;;7.35;nan
14343;BME280;7255;53.596;9.960;2023-02-10T13:08:55;102712.16;;;7.58;nan
14343;BME280;7255;53.596;9.960;2023-02-10T13:11:31;102731.41;;;7.80;nan
14343;BME280;7255;53.596;9.960;2023-02-10T13:14:03;102749.03;;;7.90;nan
14343;BME280;7255;53.596;9.960;2023-02-10T13:16:33;102755.00;;;8.10;nan
14343;BME280;7255;53.596;9.960;2023-02-10T13:19:03;102724.22;;;8.15;nan
14343;BME280;7255;53.596;9.960;2023-02-10T13:21:37;102717.84;;;8.07;nan
14343;BME280;7255;53.596;9.960;2023-02-10T13:24:13;102732.09;;;8.16;nan
14343;BME280;7255;53.596;9.960;2023-02-10T13:26:57;102730.00;;;8.28;nan
14343;BME280;7255;53.596;9.960;2023-02-10T13:29:34;102728.31;;;8.27;nan
14343;BME280;7255;53.596;9.960;2023-02-10T13:32:22;102730.38;;;8.41;nan
14343;BME280;7255;53.596;9.960;2023-02-10T13:34:54;102736.81;;;8.48;nan
14343;BME280;7255;53.596;9.960;2023-02-10T13:37:28;102658.75;;;8.43;nan
14343;BME280;7255;53.596;9.960;2023-02-10T13:39:58;102739.19;;;8.60;nan
14343;BME280;7255;53.596;9.960;2023-02-10T13:42:26;102743.88;;;8.66;nan
14343;BME280;7255;53.596;9.960;2023-02-10T13:44:59;102673.19;;;8.59;nan
14343;BME280;7255;53.596;9.960;2023-02-10T13:47:32;102705.28;;;8.42;nan
14343;BME280;7255;53.596;9.960;2023-02-10T13:50:02;102691.19;;;8.40;nan
14343;BME280;7255;53.596;9.960;2023-02-10T13:52:32;102633.44;;;8.38;nan